createdAt,value
2022-08-17T00:00:42.579Z,22.35
2022-08-17T00:03:39.159Z,22.55
2022-08-17T00:06:28.565Z,22.88
2022-08-17T00:09:18.335Z,22.96
2022-08-17T00:12:41.879Z,22.75
2022-08-17T00:15:13.779Z,22.75
2022-08-17T00:17:59.249Z,22.86
2022-08-17T00:20:45.261Z,22.93
2022-08-17T00:23:31.472Z,22.99
2022-08-17T00:26:45.238Z,23.08
2022-08-17T00:29:25.404Z,23.14
2022-08-17T00:33:14.209Z,23.13
2022-08-17T00:35:23.716Z,23.15
2022-08-17T00:38:12.127Z,23.04
2022-08-17T00:41:02.016Z,23.20
2022-08-17T00:43:54.776Z,23.24
2022-08-17T00:46:42.850Z,23.26
2022-08-17T00:49:31.805Z,23.25
2022-08-17T00:52:21.708Z,23.18
2022-08-17T00:55:09.189Z,23.17
2022-08-17T00:57:58.724Z,23.23
2022-08-17T01:00:46.179Z,23.10
2022-08-17T01:03:33.021Z,23.19
2022-08-17T01:06:21.626Z,23.25
2022-08-17T01:09:09.002Z,23.18
2022-08-17T01:11:55.668Z,23.12
2022-08-17T01:14:41.639Z,22.99
2022-08-17T01:17:28.588Z,22.78
2022-08-17T01:20:14.362Z,23.08
2022-08-17T01:23:01.489Z,23.12
2022-08-17T01:25:50.959Z,23.13
2022-08-17T01:28:54.136Z,23.15
2022-08-17T01:31:45.618Z,23.15
2022-08-17T01:34:42.429Z,23.23
2022-08-17T01:37:34.581Z,23.17
2022-08-17T01:40:31.788Z,23.25
2022-08-17T01:43:23.557Z,23.22
2022-08-17T01:46:09.678Z,23.22
2022-08-17T01:48:57.711Z,23.24
2022-08-17T01:51:44.037Z,23.03
2022-08-17T01:54:30.029Z,23.00
2022-08-17T01:57:16.717Z,23.08
2022-08-17T02:00:06.583Z,23.11
2022-08-17T02:02:57.218Z,22.90
2022-08-17T02:05:42.994Z,22.65
2022-08-17T02:08:37.229Z,22.89
2022-08-17T02:11:25.644Z,22.95
2022-08-17T02:14:12.114Z,23.04
2022-08-17T02:16:58.659Z,23.11
2022-08-17T02:19:44.749Z,22.97
2022-08-17T02:22:31.232Z,22.82
2022-08-17T02:25:20.659Z,22.91
2022-08-17T02:28:10.917Z,23.08
2022-08-17T02:31:01.256Z,23.06
2022-08-17T02:34:00.324Z,22.47
2022-08-17T02:36:49.453Z,21.98
2022-08-17T02:39:35.318Z,22.00
2022-08-17T02:42:27.737Z,22.22
2022-08-17T02:45:17.624Z,22.43
2022-08-17T02:48:04.645Z,22.14
2022-08-17T02:50:50.544Z,22.06
2022-08-17T02:53:37.124Z,22.38
2022-08-17T02:56:22.743Z,22.55
2022-08-17T02:59:09.205Z,22.69
2022-08-17T03:01:55.214Z,22.64
2022-08-17T03:04:41.505Z,22.77
2022-08-17T03:07:27.472Z,22.62
2022-08-17T03:10:14.862Z,21.99
2022-08-17T03:13:01.951Z,21.88
2022-08-17T03:15:48.609Z,22.34
2022-08-17T03:18:35.042Z,22.19
2022-08-17T03:21:21.877Z,21.63
2022-08-17T03:24:09.209Z,21.49
2022-08-17T03:26:56.069Z,21.16
2022-08-17T03:29:42.303Z,20.91
2022-08-17T03:32:29.180Z,20.50
2022-08-17T03:35:18.005Z,20.59
2022-08-17T03:38:05.250Z,20.43
2022-08-17T03:40:56.238Z,20.28
2022-08-17T03:43:45.040Z,19.98
2022-08-17T03:46:49.993Z,20.00
2022-08-17T03:50:05.890Z,20.07
2022-08-17T03:53:10.721Z,20.15
2022-08-17T03:56:24.978Z,20.38
2022-08-17T03:59:21.113Z,20.42
2022-08-17T04:02:11.992Z,20.60
2022-08-17T04:04:58.992Z,20.64
2022-08-17T04:07:46.100Z,20.64
2022-08-17T04:10:33.285Z,21.01
2022-08-17T04:13:25.565Z,21.45
2022-08-17T04:16:11.503Z,21.61
2022-08-17T04:18:57.872Z,22.01
2022-08-17T04:21:43.737Z,22.12
2022-08-17T04:24:30.162Z,22.22
2022-08-17T04:27:16.082Z,22.42
2022-08-17T04:30:06.971Z,22.57
2022-08-17T04:33:05.725Z,22.59
2022-08-17T04:35:55.826Z,22.83
2022-08-17T04:38:43.095Z,22.73
2022-08-17T04:41:49.126Z,22.44
2022-08-17T04:44:37.545Z,22.30
2022-08-17T04:47:24.948Z,22.43
2022-08-17T04:50:11.738Z,22.28
2022-08-17T04:52:58.367Z,22.46
2022-08-17T04:55:44.821Z,22.52
2022-08-17T04:58:31.536Z,22.57
2022-08-17T05:01:23.337Z,22.65
2022-08-17T05:04:21.350Z,22.69
2022-08-17T05:07:23.977Z,22.91
2022-08-17T05:10:11.674Z,23.04
2022-08-17T05:12:59.711Z,23.21
2022-08-17T05:15:50.070Z,23.37
2022-08-17T05:18:38.896Z,23.57
2022-08-17T05:21:26.981Z,23.62
2022-08-17T05:24:38.713Z,23.73
2022-08-17T05:27:19.788Z,23.94
2022-08-17T05:30:06.611Z,24.05
2022-08-17T05:33:08.939Z,24.34
2022-08-17T05:35:57.843Z,24.46
2022-08-17T05:38:44.749Z,24.26
2022-08-17T05:41:31.742Z,24.56
2022-08-17T05:44:18.671Z,24.65
2022-08-17T05:47:05.975Z,24.81
2022-08-17T05:49:56.884Z,24.82
2022-08-17T05:52:53.910Z,24.92
2022-08-17T05:56:01.762Z,25.13
2022-08-17T05:59:03.830Z,25.25
2022-08-17T06:02:15.981Z,25.46
2022-08-17T06:05:25.023Z,25.53
2022-08-17T06:08:42.631Z,25.61
2022-08-17T06:11:39.811Z,25.51
2022-08-17T06:14:42.029Z,25.71
2022-08-17T06:17:29.904Z,25.98
2022-08-17T06:20:17.630Z,26.08
2022-08-17T06:23:05.965Z,26.19
2022-08-17T06:26:03.895Z,26.33
2022-08-17T06:28:57.452Z,26.32
2022-08-17T06:31:44.635Z,26.46
2022-08-17T06:34:33.883Z,26.60
2022-08-17T06:37:25.333Z,26.74
2022-08-17T06:40:26.750Z,26.83
2022-08-17T06:43:48.045Z,26.92
2022-08-17T06:46:42.000Z,27.07
2022-08-17T06:49:55.529Z,27.15
2022-08-17T06:52:53.252Z,27.33
2022-08-17T06:55:56.620Z,27.35
2022-08-17T06:58:45.823Z,27.39
2022-08-17T07:01:39.049Z,27.45
2022-08-17T07:04:34.023Z,27.62
2022-08-17T07:07:43.960Z,27.73
2022-08-17T07:10:44.647Z,27.85
2022-08-17T07:14:18.161Z,27.95
2022-08-17T07:17:11.288Z,28.11
2022-08-17T07:20:08.958Z,28.25
2022-08-17T07:23:25.628Z,28.43
2022-08-17T07:26:15.956Z,28.47
2022-08-17T07:29:03.959Z,28.44
2022-08-17T07:31:53.883Z,28.57
2022-08-17T07:35:01.703Z,28.73
2022-08-17T07:37:55.712Z,28.75
2022-08-17T07:40:59.399Z,28.79
2022-08-17T07:43:52.548Z,28.86
2022-08-17T07:47:10.588Z,28.83
2022-08-17T07:50:37.600Z,28.92
2022-08-17T07:53:26.781Z,28.97
2022-08-17T07:56:34.818Z,29.00
2022-08-17T07:59:33.376Z,28.99
2022-08-17T08:02:35.469Z,29.02
2022-08-17T08:05:31.715Z,29.03
2022-08-17T08:08:45.866Z,29.10
2022-08-17T08:11:43.746Z,29.19
2022-08-17T08:14:41.088Z,29.23
2022-08-17T08:17:47.194Z,29.28
2022-08-17T08:20:53.373Z,29.26
2022-08-17T08:24:13.530Z,29.34
2022-08-17T08:27:27.642Z,29.37
2022-08-17T08:30:22.625Z,29.40
2022-08-17T08:33:10.705Z,29.63
2022-08-17T08:36:12.281Z,29.72
2022-08-17T08:39:42.715Z,29.64
2022-08-17T08:43:10.372Z,29.75
2022-08-17T08:46:25.563Z,29.89
2022-08-17T08:50:01.876Z,29.88
2022-08-17T08:53:14.615Z,29.98
2022-08-17T08:56:14.978Z,29.82
2022-08-17T08:59:23.714Z,30.03
2022-08-17T09:02:39.024Z,30.15
2022-08-17T09:06:33.306Z,30.17
2022-08-17T09:09:21.009Z,30.25
2022-08-17T09:12:17.450Z,30.21
2022-08-17T09:15:14.313Z,30.00
2022-08-17T09:19:01.333Z,30.08
2022-08-17T09:21:54.563Z,30.05
2022-08-17T09:25:14.613Z,29.95
2022-08-17T09:28:19.499Z,29.88
2022-08-17T09:31:11.444Z,29.96
2022-08-17T09:34:11.444Z,29.96
2022-08-17T09:37:20.427Z,30.03
2022-08-17T09:40:29.109Z,30.07
2022-08-17T09:43:45.621Z,30.02
2022-08-17T09:46:45.758Z,30.17
2022-08-17T09:50:01.357Z,30.21
2022-08-17T09:52:51.415Z,30.23
2022-08-17T09:56:06.868Z,30.22
2022-08-17T09:59:25.457Z,30.28
2022-08-17T10:02:54.450Z,30.14
2022-08-17T10:05:57.547Z,30.16
2022-08-17T10:08:52.535Z,30.19
2022-08-17T10:12:13.310Z,30.10
2022-08-17T10:15:44.544Z,30.20
2022-08-17T10:19:09.458Z,30.15
2022-08-17T10:22:34.570Z,30.18
2022-08-17T10:26:00.532Z,30.20
2022-08-17T10:29:02.871Z,30.32
2022-08-17T10:32:03.548Z,30.30
2022-08-17T10:35:14.719Z,30.40
2022-08-17T10:38:25.965Z,30.42
2022-08-17T10:41:18.479Z,30.44
2022-08-17T10:44:38.120Z,30.32
2022-08-17T10:48:06.080Z,30.38
2022-08-17T10:50:58.130Z,30.50
2022-08-17T10:53:49.221Z,30.52
2022-08-17T10:56:43.406Z,30.44
2022-08-17T10:59:37.299Z,30.43
2022-08-17T11:02:31.495Z,30.44
2022-08-17T11:05:59.281Z,30.45
2022-08-17T11:09:02.028Z,30.40
2022-08-17T11:12:00.174Z,30.49
2022-08-17T11:15:12.073Z,30.47
2022-08-17T11:18:11.329Z,30.38
2022-08-17T11:21:12.635Z,30.34
2022-08-17T11:24:12.118Z,30.38
2022-08-17T11:27:17.165Z,30.43
2022-08-17T11:30:31.130Z,30.51
2022-08-17T11:33:29.687Z,30.51
2022-08-17T11:36:35.402Z,30.41
2022-08-17T11:39:28.236Z,30.38
2022-08-17T11:42:25.742Z,30.47
2022-08-17T11:45:37.081Z,30.44
2022-08-17T11:49:01.034Z,30.26
2022-08-17T11:52:01.159Z,30.18
2022-08-17T11:54:48.976Z,30.12
2022-08-17T11:57:40.630Z,30.30
2022-08-17T12:00:47.319Z,30.28
2022-08-17T12:03:34.126Z,30.49
2022-08-17T12:06:31.065Z,30.54
2022-08-17T12:09:25.011Z,30.58
2022-08-17T12:12:15.038Z,30.55
2022-08-17T12:15:10.524Z,30.70
2022-08-17T12:17:58.418Z,30.73
2022-08-17T12:20:45.601Z,30.57
2022-08-17T12:23:47.871Z,30.69
2022-08-17T12:26:36.974Z,30.86
2022-08-17T12:29:35.824Z,30.77
2022-08-17T12:32:30.927Z,30.82
2022-08-17T12:35:49.850Z,30.70
2022-08-17T12:38:41.903Z,30.71
2022-08-17T12:41:36.553Z,30.60
2022-08-17T12:44:30.066Z,30.76
2022-08-17T12:47:22.747Z,30.69
2022-08-17T12:50:28.711Z,30.64
2022-08-17T12:53:25.985Z,30.49
2022-08-17T12:56:13.891Z,30.48
2022-08-17T12:59:02.352Z,30.46
2022-08-17T13:01:50.530Z,30.68
2022-08-17T13:04:41.056Z,30.72
2022-08-17T13:07:30.906Z,30.75
2022-08-17T13:10:32.442Z,30.68
2022-08-17T13:13:26.767Z,30.60
2022-08-17T13:16:14.503Z,30.57
2022-08-17T13:19:15.061Z,30.57
2022-08-17T13:22:02.135Z,30.36
2022-08-17T13:25:04.099Z,30.55
2022-08-17T13:27:58.361Z,30.54
2022-08-17T13:30:45.903Z,30.59
2022-08-17T13:33:43.383Z,30.67
2022-08-17T13:36:33.985Z,30.52
2022-08-17T13:39:25.504Z,30.60
2022-08-17T13:42:52.731Z,30.58
2022-08-17T13:45:50.765Z,30.70
2022-08-17T13:48:37.917Z,30.74
2022-08-17T13:51:29.053Z,30.72
2022-08-17T13:54:34.935Z,30.66
2022-08-17T13:57:28.415Z,30.59
2022-08-17T14:00:30.941Z,30.62
2022-08-17T14:03:20.101Z,30.50
2022-08-17T14:06:07.800Z,30.64
2022-08-17T14:08:57.127Z,30.64
2022-08-17T14:11:47.796Z,30.66
2022-08-17T14:14:36.616Z,30.67
2022-08-17T14:17:24.356Z,30.65
2022-08-17T14:20:12.965Z,30.66
2022-08-17T14:22:59.811Z,30.58
2022-08-17T14:25:47.946Z,30.66
2022-08-17T14:28:36.392Z,30.61
2022-08-17T14:31:22.987Z,30.59
2022-08-17T14:34:10.663Z,30.53
2022-08-17T14:36:58.977Z,30.49
2022-08-17T14:39:54.886Z,30.53
2022-08-17T14:42:51.120Z,30.57
2022-08-17T14:45:37.842Z,30.49
2022-08-17T14:48:25.877Z,30.38
2022-08-17T14:51:18.806Z,30.31
2022-08-17T14:54:06.798Z,30.26
2022-08-17T14:57:15.567Z,30.04
2022-08-17T15:00:04.799Z,30.15
2022-08-17T15:02:54.723Z,30.10
2022-08-17T15:05:41.617Z,30.20
2022-08-17T15:08:28.811Z,30.16
2022-08-17T15:11:15.882Z,30.22
2022-08-17T15:14:03.824Z,30.15
2022-08-17T15:16:57.053Z,30.19
2022-08-17T15:20:06.075Z,30.23
2022-08-17T15:23:01.523Z,30.24
2022-08-17T15:25:51.117Z,30.20
2022-08-17T15:28:43.051Z,30.24
2022-08-17T15:31:47.694Z,30.25
2022-08-17T15:34:40.532Z,30.21
2022-08-17T15:37:35.001Z,30.21
2022-08-17T15:40:27.594Z,30.21
2022-08-17T15:43:51.508Z,30.14
2022-08-17T15:47:06.299Z,30.15
2022-08-17T15:50:09.692Z,30.10
2022-08-17T15:53:01.264Z,30.08
2022-08-17T15:55:52.338Z,29.91
2022-08-17T15:58:48.760Z,29.84
2022-08-17T16:03:01.178Z,29.99
2022-08-17T16:04:57.372Z,29.85
2022-08-17T16:07:50.756Z,29.94
2022-08-17T16:10:44.695Z,29.91
2022-08-17T16:13:36.552Z,29.92
2022-08-17T16:16:27.457Z,29.86
2022-08-17T16:19:18.403Z,29.86
2022-08-17T16:22:09.990Z,29.82
2022-08-17T16:25:08.490Z,29.79
2022-08-17T16:28:01.264Z,29.77
2022-08-17T16:30:47.682Z,29.66
2022-08-17T16:33:37.310Z,29.75
2022-08-17T16:36:55.110Z,29.72
2022-08-17T16:39:57.638Z,29.71
2022-08-17T16:42:49.564Z,29.67
2022-08-17T16:45:43.172Z,29.66
2022-08-17T16:48:30.452Z,29.45
2022-08-17T16:51:24.583Z,29.59
2022-08-17T16:54:15.928Z,29.54
2022-08-17T16:57:05.656Z,29.51
2022-08-17T16:59:53.634Z,29.46
2022-08-17T17:02:48.069Z,29.27
2022-08-17T17:05:46.170Z,29.45
2022-08-17T17:09:05.669Z,29.44
2022-08-17T17:12:03.870Z,29.45
2022-08-17T17:14:59.294Z,29.42
2022-08-17T17:17:49.826Z,29.40
2022-08-17T17:21:13.927Z,29.36
2022-08-17T17:24:07.481Z,29.30
2022-08-17T17:27:13.409Z,29.27
2022-08-17T17:30:41.662Z,29.20
2022-08-17T17:33:49.253Z,29.15
2022-08-17T17:36:51.578Z,29.06
2022-08-17T17:39:50.273Z,29.00
2022-08-17T17:42:40.458Z,28.95
2022-08-17T17:45:40.590Z,28.87
2022-08-17T17:48:30.239Z,28.77
2022-08-17T17:51:35.169Z,28.74
2022-08-17T17:55:04.439Z,28.65
2022-08-17T17:58:22.064Z,28.51
2022-08-17T18:01:26.120Z,28.45
2022-08-17T18:04:21.454Z,28.39
2022-08-17T18:07:27.256Z,28.30
2022-08-17T18:10:30.317Z,28.18
2022-08-17T18:13:36.409Z,28.11
2022-08-17T18:16:23.210Z,27.98
2022-08-17T18:19:21.229Z,27.90
2022-08-17T18:22:23.306Z,27.76
2022-08-17T18:25:43.991Z,27.66
2022-08-17T18:28:40.315Z,27.56
2022-08-17T18:31:27.071Z,27.48
2022-08-17T18:37:40.257Z,27.28
2022-08-17T18:40:36.192Z,27.23
2022-08-17T18:43:44.210Z,27.16
2022-08-17T18:46:43.844Z,26.96
2022-08-17T18:49:30.365Z,26.99
2022-08-17T18:52:33.751Z,26.84
2022-08-17T18:55:30.312Z,26.86
2022-08-17T18:58:20.501Z,26.81
2022-08-17T19:01:06.528Z,26.76
2022-08-17T19:03:52.801Z,26.67
2022-08-17T19:06:39.795Z,26.60
2022-08-17T19:09:47.517Z,26.59
2022-08-17T19:12:47.614Z,26.51
2022-08-17T19:15:38.691Z,26.42
2022-08-17T19:18:30.559Z,26.32
2022-08-17T19:21:26.317Z,26.21
2022-08-17T19:24:20.288Z,26.16
2022-08-17T19:27:34.927Z,26.09
2022-08-17T19:30:53.093Z,26.03
2022-08-17T19:33:52.281Z,25.93
2022-08-17T19:36:57.562Z,25.83
2022-08-17T19:40:08.733Z,25.74
2022-08-17T19:43:13.723Z,25.66
2022-08-17T19:46:08.745Z,25.57
2022-08-17T19:49:22.414Z,25.56
2022-08-17T19:52:37.725Z,25.54
2022-08-17T19:55:44.180Z,25.44
2022-08-17T19:58:52.058Z,25.29
2022-08-17T20:01:45.484Z,25.38
2022-08-17T20:04:42.400Z,25.34
2022-08-17T20:07:46.556Z,25.29
2022-08-17T20:10:47.369Z,25.24
2022-08-17T20:14:00.254Z,25.17
2022-08-17T20:16:47.487Z,25.11
2022-08-17T20:19:52.363Z,24.89
2022-08-17T20:22:59.589Z,24.98
2022-08-17T20:26:10.319Z,24.77
2022-08-17T20:29:06.134Z,24.91
2022-08-17T20:31:55.406Z,24.86
2022-08-17T20:34:45.529Z,24.85
2022-08-17T20:37:34.324Z,24.66
2022-08-17T20:40:26.103Z,24.75
2022-08-17T20:43:34.258Z,24.73
2022-08-17T20:46:41.858Z,24.68
2022-08-17T20:49:57.818Z,24.62
2022-08-17T20:52:54.191Z,24.52
2022-08-17T20:55:52.294Z,24.51
2022-08-17T20:58:46.600Z,24.46
2022-08-17T21:01:39.886Z,24.41
2022-08-17T21:05:07.317Z,24.34
2022-08-17T21:08:00.567Z,24.29
2022-08-17T21:10:47.472Z,24.24
2022-08-17T21:13:36.651Z,24.20
2022-08-17T21:16:27.110Z,24.01
2022-08-17T21:19:19.442Z,24.24
2022-08-17T21:22:21.272Z,24.13
2022-08-17T21:25:26.391Z,24.05
2022-08-17T21:28:33.979Z,24.02
2022-08-17T21:31:40.273Z,23.83
2022-08-17T21:34:29.118Z,23.94
2022-08-17T21:37:33.374Z,23.92
2022-08-17T21:40:27.456Z,24.00
2022-08-17T21:43:27.109Z,23.87
2022-08-17T21:46:29.505Z,24.24
2022-08-17T21:49:19.383Z,24.05
2022-08-17T21:52:07.762Z,24.04
2022-08-17T21:54:57.744Z,23.93
2022-08-17T21:57:53.176Z,23.87
2022-08-17T22:01:22.811Z,23.83
2022-08-17T22:04:15.251Z,23.90
2022-08-17T22:07:09.950Z,23.78
2022-08-17T22:09:56.213Z,23.66
2022-08-17T22:13:05.265Z,23.78
2022-08-17T22:16:29.067Z,23.79
2022-08-17T22:19:15.930Z,23.61
2022-08-17T22:22:05.064Z,23.69
2022-08-17T22:24:56.845Z,23.66
2022-08-17T22:28:11.016Z,23.65
2022-08-17T22:31:02.416Z,23.46
2022-08-17T22:34:09.968Z,23.53
2022-08-17T22:37:27.511Z,23.55
2022-08-17T22:40:26.157Z,23.86
2022-08-17T22:43:13.074Z,23.83
2022-08-17T22:46:00.265Z,23.75
2022-08-17T22:48:50.271Z,23.63
2022-08-17T22:51:43.061Z,23.56
2022-08-17T22:54:48.119Z,23.44
2022-08-17T22:58:07.944Z,23.41
2022-08-17T23:00:54.060Z,23.48
2022-08-17T23:03:54.170Z,23.56
2022-08-17T23:06:44.027Z,23.47
2022-08-17T23:09:30.939Z,23.29
2022-08-17T23:12:23.920Z,23.29
2022-08-17T23:15:14.846Z,23.08
2022-08-17T23:18:04.928Z,23.18
2022-08-17T23:20:51.922Z,23.10
2022-08-17T23:23:39.314Z,22.86
2022-08-17T23:26:27.868Z,22.92
2022-08-17T23:29:14.878Z,22.88
2022-08-17T23:32:04.899Z,22.81
2022-08-17T23:34:51.143Z,22.78
2022-08-17T23:37:38.219Z,22.69
2022-08-17T23:40:24.881Z,22.72
2022-08-17T23:43:23.881Z,22.90
2022-08-17T23:46:11.886Z,22.79
2022-08-17T23:48:59.790Z,22.86
2022-08-17T23:51:46.835Z,22.80
2022-08-17T23:54:38.955Z,22.81
2022-08-17T23:57:33.842Z,22.87
